Time;durP1;ratioP1;P1;durP2;ratioP2;P2;SDS_P1;SDS_P2;PMS_P1;PMS_P2;Temp;Humidity;BMP_temperature;BMP_pressure;BME280_temperature;BME280_humidity;BME280_pressure;Samples;Min_cycle;Max_cycle;Signal;HPM_P1;HPM_P2
2024/01/27 00:00:09;;;;;;;15.57;3.03;;;;;;;;;;5020873;28;20044;-39
2024/01/27 00:02:37;;;;;;;13.07;1.60;;;;;;;;;;5019699;28;20050;-39
2024/01/27 00:05:06;;;;;;;13.68;1.73;;;;;;;;;;5022858;28;20044;-40
2024/01/27 00:07:36;;;;;;;15.63;2.05;;;;;;;;;;5017458;28;20049;-39
2024/01/27 00:10:04;;;;;;;17.35;2.55;;;;;;;;;;5029675;28;20052;-39
2024/01/27 00:12:31;;;;;;;7.80;1.48;;;;;;;;;;5015672;28;20777;-39
2024/01/27 00:14:59;;;;;;;12.67;2.23;;;;;;;;;;5027573;28;20041;-40
2024/01/27 00:17:27;;;;;;;6.63;1.58;;;;;;;;;;5025554;28;20320;-39
2024/01/27 00:19:55;;;;;;;10.55;1.42;;;;;;;;;;5021940;28;20044;-39
2024/01/27 00:22:24;;;;;;;10.82;1.45;;;;;;;;;;5021380;28;20247;-41
2024/01/27 00:24:52;;;;;;;19.35;1.55;;;;;;;;;;5026725;28;20075;-39
2024/01/27 00:27:22;;;;;;;8.37;1.17;;;;;;;;;;4948135;28;20063;-40
2024/01/27 00:29:50;;;;;;;12.68;1.10;;;;;;;;;;4940290;28;20389;-39
2024/01/27 00:32:17;;;;;;;13.52;1.60;;;;;;;;;;5012295;28;20080;-39
2024/01/27 00:34:45;;;;;;;6.75;1.52;;;;;;;;;;5024771;28;20029;-39
2024/01/27 00:37:13;;;;;;;12.02;1.33;;;;;;;;;;5027556;28;20036;-39
2024/01/27 00:39:45;;;;;;;15.67;1.40;;;;;;;;;;5015473;28;20098;-49
2024/01/27 00:42:13;;;;;;;8.57;0.98;;;;;;;;;;5032514;28;20123;-39
2024/01/27 00:44:41;;;;;;;9.10;1.23;;;;;;;;;;5015432;28;20673;-39
2024/01/27 00:47:08;;;;;;;9.88;1.23;;;;;;;;;;5037478;28;20041;-39
2024/01/27 00:49:36;;;;;;;11.00;1.42;;;;;;;;;;5013421;28;20510;-38
2024/01/27 00:52:05;;;;;;;13.43;1.50;;;;;;;;;;5048097;28;20044;-40
2024/01/27 00:54:33;;;;;;;14.13;1.20;;;;;;;;;;5005392;28;20059;-39
2024/01/27 00:57:02;;;;;;;12.25;1.55;;;;;;;;;;5056101;28;20038;-41
2024/01/27 00:59:30;;;;;;;11.18;1.17;;;;;;;;;;5014260;28;20060;-39
2024/01/27 01:01:58;;;;;;;13.80;1.88;;;;;;;;;;5028719;28;20064;-39
2024/01/27 01:04:25;;;;;;;8.93;1.57;;;;;;;;;;5028917;28;20037;-39
2024/01/27 01:06:54;;;;;;;8.07;1.10;;;;;;;;;;5019444;28;20732;-39
2024/01/27 01:09:21;;;;;;;9.73;1.30;;;;;;;;;;5033871;28;20051;-40
2024/01/27 01:11:49;;;;;;;13.32;1.77;;;;;;;;;;5027987;28;20198;-40
2024/01/27 01:14:18;;;;;;;13.15;1.10;;;;;;;;;;5035494;28;20786;-39
2024/01/27 01:16:46;;;;;;;13.03;1.50;;;;;;;;;;5037573;28;20048;-39
2024/01/27 01:19:16;;;;;;;13.80;1.10;;;;;;;;;;5065030;28;20047;-39
2024/01/27 01:21:44;;;;;;;13.55;1.50;;;;;;;;;;5032859;28;20048;-40
2024/01/27 01:24:13;;;;;;;9.32;1.10;;;;;;;;;;5028749;28;20855;-40
2024/01/27 01:26:44;;;;;;;12.63;1.80;;;;;;;;;;4956808;28;21096;-39
2024/01/27 01:29:12;;;;;;;13.07;1.13;;;;;;;;;;4951665;28;20051;-39
2024/01/27 01:31:44;;;;;;;17.58;2.00;;;;;;;;;;5031565;28;20498;-40
2024/01/27 01:34:12;;;;;;;11.68;1.38;;;;;;;;;;5033239;28;20044;-39
2024/01/27 01:36:40;;;;;;;13.85;2.20;;;;;;;;;;5033543;28;20059;-39
2024/01/27 01:39:08;;;;;;;14.25;1.20;;;;;;;;;;5046588;28;20052;-39
2024/01/27 01:41:36;;;;;;;14.47;1.20;;;;;;;;;;5045309;28;20487;-39
2024/01/27 01:44:04;;;;;;;13.88;1.20;;;;;;;;;;5064778;28;20051;-39
2024/01/27 01:46:32;;;;;;;7.47;1.40;;;;;;;;;;5014695;28;20033;-39
2024/01/27 01:49:01;;;;;;;9.38;1.30;;;;;;;;;;5042236;28;20050;-39
2024/01/27 01:51:46;;;;;;;10.38;1.10;;;;;;;;;;5025226;28;20045;-39
2024/01/27 01:54:14;;;;;;;9.63;1.53;;;;;;;;;;5009767;28;20044;-39
2024/01/27 01:56:43;;;;;;;9.25;0.93;;;;;;;;;;5026847;28;20041;-39
2024/01/27 01:59:10;;;;;;;10.85;2.05;;;;;;;;;;5034438;28;20051;-38
2024/01/27 02:01:38;;;;;;;8.15;1.20;;;;;;;;;;5027562;28;20052;-39
2024/01/27 02:04:14;;;;;;;8.27;1.25;;;;;;;;;;5038146;28;20048;-38
2024/01/27 02:06:44;;;;;;;11.87;1.53;;;;;;;;;;5022306;28;20098;-38
2024/01/27 02:09:12;;;;;;;8.43;1.52;;;;;;;;;;5038866;28;20200;-38
2024/01/27 02:11:39;;;;;;;9.32;1.00;;;;;;;;;;5025220;28;20048;-38
2024/01/27 02:14:07;;;;;;;9.27;0.90;;;;;;;;;;5044233;28;20573;-39
2024/01/27 02:16:35;;;;;;;10.15;1.48;;;;;;;;;;5032079;28;20063;-39
2024/01/27 02:19:03;;;;;;;10.00;1.17;;;;;;;;;;5041713;28;20407;-38
2024/01/27 02:21:33;;;;;;;13.40;1.08;;;;;;;;;;5020220;28;20044;-41
2024/01/27 02:24:00;;;;;;;15.68;1.17;;;;;;;;;;5037636;28;20579;-39
2024/01/27 02:26:30;;;;;;;13.25;2.45;;;;;;;;;;5007542;28;20129;-38
2024/01/27 02:28:57;;;;;;;14.75;1.65;;;;;;;;;;4872596;28;20076;-38
2024/01/27 02:31:30;;;;;;;12.40;1.80;;;;;;;;;;5022652;28;20051;-39
2024/01/27 02:33:58;;;;;;;12.55;1.08;;;;;;;;;;5031480;28;20045;-38
2024/01/27 02:36:26;;;;;;;14.45;1.73;;;;;;;;;;5041927;28;20041;-38
2024/01/27 02:38:54;;;;;;;16.40;1.15;;;;;;;;;;5027637;28;20062;-39
2024/01/27 02:41:22;;;;;;;17.83;1.63;;;;;;;;;;5032384;28;20033;-38
2024/01/27 02:43:51;;;;;;;12.13;1.53;;;;;;;;;;5022969;28;20040;-38
2024/01/27 02:46:22;;;;;;;8.00;1.30;;;;;;;;;;5008342;28;20041;-39
2024/01/27 02:48:50;;;;;;;15.27;1.75;;;;;;;;;;5033691;28;20055;-38
2024/01/27 02:51:20;;;;;;;11.57;1.33;;;;;;;;;;5022302;28;20127;-38
2024/01/27 02:53:47;;;;;;;13.50;1.20;;;;;;;;;;5025130;28;20098;-39
2024/01/27 02:56:20;;;;;;;7.73;1.13;;;;;;;;;;5045154;28;20056;-38
2024/01/27 02:58:48;;;;;;;13.85;1.35;;;;;;;;;;5035048;28;20040;-38
2024/01/27 03:01:17;;;;;;;14.30;1.75;;;;;;;;;;5034406;28;20052;-40
2024/01/27 03:03:45;;;;;;;18.27;2.28;;;;;;;;;;5031679;28;20443;-38
2024/01/27 03:06:13;;;;;;;8.38;1.17;;;;;;;;;;5031050;28;20064;-38
2024/01/27 03:08:41;;;;;;;11.40;1.63;;;;;;;;;;5031122;28;20044;-38
2024/01/27 03:11:09;;;;;;;10.05;1.27;;;;;;;;;;5030125;28;20135;-40
2024/01/27 03:13:36;;;;;;;15.02;1.30;;;;;;;;;;5025773;28;20464;-39
2024/01/27 03:16:12;;;;;;;10.20;1.40;;;;;;;;;;5044849;28;20093;-39
2024/01/27 03:18:41;;;;;;;8.13;0.90;;;;;;;;;;5032786;28;20036;-38
2024/01/27 03:21:09;;;;;;;9.97;1.33;;;;;;;;;;5054056;28;20048;-38
2024/01/27 03:23:37;;;;;;;11.55;1.23;;;;;;;;;;5033171;28;20190;-39
2024/01/27 03:26:05;;;;;;;14.35;1.30;;;;;;;;;;4997242;28;20052;-38
2024/01/27 03:28:33;;;;;;;15.05;1.60;;;;;;;;;;4884005;28;20056;-38
2024/01/27 03:31:01;;;;;;;15.68;1.70;;;;;;;;;;5037031;28;20088;-39
2024/01/27 03:33:30;;;;;;;13.43;1.93;;;;;;;;;;5029277;28;20044;-38
2024/01/27 03:35:59;;;;;;;11.82;1.30;;;;;;;;;;5026327;28;20098;-38
2024/01/27 03:38:28;;;;;;;9.00;1.02;;;;;;;;;;5009147;28;20501;-38
2024/01/27 03:40:56;;;;;;;13.95;1.13;;;;;;;;;;5041724;28;20041;-38
2024/01/27 03:43:24;;;;;;;15.45;1.58;;;;;;;;;;5053208;28;20792;-38
2024/01/27 03:45:51;;;;;;;11.10;1.77;;;;;;;;;;5026435;28;20044;-38
2024/01/27 03:48:20;;;;;;;4.18;0.95;;;;;;;;;;5041418;28;20506;-38
2024/01/27 03:50:48;;;;;;;9.10;1.00;;;;;;;;;;5018074;28;20079;-38
2024/01/27 03:53:17;;;;;;;14.93;1.20;;;;;;;;;;5045181;28;20064;-39
2024/01/27 03:55:44;;;;;;;13.68;0.75;;;;;;;;;;5029791;28;20052;-38
2024/01/27 03:58:17;;;;;;;9.60;1.13;;;;;;;;;;5033450;28;20056;-38
2024/01/27 04:00:44;;;;;;;12.32;2.00;;;;;;;;;;5039961;28;20040;-39
2024/01/27 04:03:13;;;;;;;8.73;0.90;;;;;;;;;;5006985;28;20489;-38
2024/01/27 04:05:40;;;;;;;12.90;1.05;;;;;;;;;;5045212;28;20044;-38
2024/01/27 04:08:08;;;;;;;9.23;1.30;;;;;;;;;;5013158;28;20048;-38
2024/01/27 04:10:38;;;;;;;11.63;1.23;;;;;;;;;;5037557;28;21716;-39
2024/01/27 04:13:09;;;;;;;7.57;1.20;;;;;;;;;;5025331;28;20052;-38
2024/01/27 04:15:38;;;;;;;10.15;0.90;;;;;;;;;;5043140;28;20044;-38
2024/01/27 04:18:08;;;;;;;8.77;1.13;;;;;;;;;;5041770;28;20051;-38
2024/01/27 04:20:37;;;;;;;9.55;0.73;;;;;;;;;;5036901;28;20503;-38
2024/01/27 04:23:04;;;;;;;7.47;1.13;;;;;;;;;;5031526;28;20437;-38
2024/01/27 04:25:33;;;;;;;10.48;0.88;;;;;;;;;;5036128;28;20044;-40
2024/01/27 04:28:03;;;;;;;8.55;0.90;;;;;;;;;;4858927;28;20041;-38
2024/01/27 04:30:30;;;;;;;12.18;1.13;;;;;;;;;;5034261;28;20040;-39
2024/01/27 04:32:59;;;;;;;14.68;1.30;;;;;;;;;;5022646;28;20080;-39
2024/01/27 04:35:27;;;;;;;10.77;1.23;;;;;;;;;;5034484;28;20467;-39
2024/01/27 04:37:55;;;;;;;6.95;0.80;;;;;;;;;;5035572;28;20172;-39
2024/01/27 04:40:22;;;;;;;14.07;0.95;;;;;;;;;;5036227;28;20040;-39
2024/01/27 04:42:50;;;;;;;11.15;0.77;;;;;;;;;;5030492;28;20644;-39
2024/01/27 04:45:19;;;;;;;10.27;1.17;;;;;;;;;;5005903;28;20033;-39
2024/01/27 04:47:47;;;;;;;11.57;0.83;;;;;;;;;;5039315;28;20058;-38
2024/01/27 04:50:15;;;;;;;11.48;1.13;;;;;;;;;;5064500;28;20044;-40
2024/01/27 04:53:01;;;;;;;6.07;1.15;;;;;;;;;;5027179;28;20105;-40
2024/01/27 04:55:29;;;;;;;8.85;1.42;;;;;;;;;;5024454;28;20033;-39
2024/01/27 04:57:58;;;;;;;16.55;1.30;;;;;;;;;;5037496;28;20049;-39
2024/01/27 05:00:28;;;;;;;12.97;0.87;;;;;;;;;;5038066;28;20056;-40
2024/01/27 05:02:57;;;;;;;8.73;1.15;;;;;;;;;;5037804;28;20040;-40
2024/01/27 05:05:25;;;;;;;12.25;0.93;;;;;;;;;;5035732;28;20045;-39
2024/01/27 05:07:52;;;;;;;13.35;0.77;;;;;;;;;;5037866;28;20040;-39
2024/01/27 05:10:22;;;;;;;5.63;0.50;;;;;;;;;;5037244;28;20036;-39
2024/01/27 05:12:49;;;;;;;12.37;1.07;;;;;;;;;;5028731;28;20460;-39
2024/01/27 05:15:17;;;;;;;12.35;1.27;;;;;;;;;;5034944;28;20048;-39
2024/01/27 05:17:46;;;;;;;14.23;1.05;;;;;;;;;;5026405;28;20140;-39
2024/01/27 05:20:14;;;;;;;11.55;0.90;;;;;;;;;;5044097;28;20220;-39
2024/01/27 05:22:42;;;;;;;13.68;0.90;;;;;;;;;;5032619;28;20682;-40
2024/01/27 05:25:10;;;;;;;13.87;2.00;;;;;;;;;;5034246;28;20580;-39
2024/01/27 05:27:38;;;;;;;10.18;1.10;;;;;;;;;;4932962;28;20313;-39
2024/01/27 05:30:06;;;;;;;15.00;1.27;;;;;;;;;;4954905;28;20077;-38
2024/01/27 05:32:34;;;;;;;11.05;0.73;;;;;;;;;;5024885;28;20123;-39
2024/01/27 05:35:05;;;;;;;9.40;0.82;;;;;;;;;;5040174;28;20047;-38
2024/01/27 05:37:33;;;;;;;14.37;1.10;;;;;;;;;;5031626;28;20043;-38
2024/01/27 05:40:00;;;;;;;18.17;1.58;;;;;;;;;;5032539;28;20048;-38
2024/01/27 05:42:28;;;;;;;8.35;1.17;;;;;;;;;;5045414;28;20572;-38
2024/01/27 05:44:56;;;;;;;9.25;1.92;;;;;;;;;;5016785;28;20830;-39
2024/01/27 05:47:24;;;;;;;13.05;1.67;;;;;;;;;;5038519;28;20047;-39
2024/01/27 05:49:52;;;;;;;11.57;1.00;;;;;;;;;;5003408;28;20036;-40
2024/01/27 05:52:21;;;;;;;8.65;0.98;;;;;;;;;;5015783;28;20040;-39
2024/01/27 05:54:52;;;;;;;10.77;1.42;;;;;;;;;;5013954;28;20588;-39
2024/01/27 05:57:20;;;;;;;13.20;1.08;;;;;;;;;;5027458;28;20051;-39
2024/01/27 05:59:48;;;;;;;10.55;1.40;;;;;;;;;;5029921;28;20040;-39
2024/01/27 06:02:18;;;;;;;10.87;1.00;;;;;;;;;;5051229;28;20060;-39
2024/01/27 06:04:46;;;;;;;11.52;1.92;;;;;;;;;;5023265;28;20051;-39
2024/01/27 06:07:14;;;;;;;13.93;2.15;;;;;;;;;;5029779;28;20048;-39
2024/01/27 06:09:44;;;;;;;12.05;1.20;;;;;;;;;;5027032;28;20041;-39
2024/01/27 06:12:11;;;;;;;8.07;1.52;;;;;;;;;;5031918;28;20048;-38
2024/01/27 06:14:41;;;;;;;14.77;1.10;;;;;;;;;;5011913;28;20041;-39
2024/01/27 06:17:09;;;;;;;8.90;1.23;;;;;;;;;;5037829;28;20147;-39
2024/01/27 06:19:37;;;;;;;6.85;1.02;;;;;;;;;;5020125;28;20451;-39
2024/01/27 06:22:05;;;;;;;12.38;1.20;;;;;;;;;;5029740;28;20113;-39
2024/01/27 06:24:33;;;;;;;8.07;1.38;;;;;;;;;;5007830;28;20040;-39
2024/01/27 06:27:03;;;;;;;17.67;1.50;;;;;;;;;;4952292;28;20045;-39
2024/01/27 06:29:30;;;;;;;10.70;1.13;;;;;;;;;;4939301;28;20044;-39
2024/01/27 06:32:03;;;;;;;15.25;2.15;;;;;;;;;;5021252;28;20044;-40
2024/01/27 06:34:32;;;;;;;14.88;1.20;;;;;;;;;;5031072;28;20055;-39
2024/01/27 06:37:00;;;;;;;13.32;1.98;;;;;;;;;;5034622;28;20048;-39
2024/01/27 06:39:29;;;;;;;17.23;2.07;;;;;;;;;;5031248;28;20036;-39
2024/01/27 06:41:57;;;;;;;10.43;1.20;;;;;;;;;;5030325;28;20036;-39
2024/01/27 06:44:29;;;;;;;10.60;1.13;;;;;;;;;;5025865;28;20032;-39
2024/01/27 06:46:57;;;;;;;9.13;1.10;;;;;;;;;;5039161;28;20033;-39
2024/01/27 06:49:24;;;;;;;10.80;1.50;;;;;;;;;;5016475;28;20045;-39
2024/01/27 06:51:52;;;;;;;12.23;2.13;;;;;;;;;;5022242;28;20041;-39
2024/01/27 06:54:20;;;;;;;14.85;1.48;;;;;;;;;;5022798;28;20502;-39
2024/01/27 06:56:48;;;;;;;6.50;1.20;;;;;;;;;;5034251;28;20033;-39
2024/01/27 06:59:16;;;;;;;11.00;1.08;;;;;;;;;;5024468;28;20041;-40
2024/01/27 07:01:48;;;;;;;10.57;1.20;;;;;;;;;;5010584;28;20520;-39
2024/01/27 07:04:17;;;;;;;7.63;0.93;;;;;;;;;;5020426;28;20037;-39
2024/01/27 07:06:45;;;;;;;9.55;1.40;;;;;;;;;;5002717;28;20040;-39
2024/01/27 07:09:13;;;;;;;9.45;1.10;;;;;;;;;;5032906;28;20347;-39
2024/01/27 07:11:41;;;;;;;7.60;1.33;;;;;;;;;;5024463;28;21019;-39
2024/01/27 07:14:09;;;;;;;11.88;1.20;;;;;;;;;;5033569;28;20052;-39
2024/01/27 07:16:36;;;;;;;13.57;2.10;;;;;;;;;;5015726;28;20846;-39
2024/01/27 07:19:05;;;;;;;9.82;1.05;;;;;;;;;;5029261;28;20068;-39
2024/01/27 07:21:33;;;;;;;16.05;1.90;;;;;;;;;;5029860;28;20354;-39
2024/01/27 07:24:01;;;;;;;10.98;1.10;;;;;;;;;;5022980;28;20842;-39
2024/01/27 07:26:31;;;;;;;9.13;1.30;;;;;;;;;;5030227;28;20567;-39
2024/01/27 07:29:01;;;;;;;10.77;1.73;;;;;;;;;;4945113;28;20040;-39
2024/01/27 07:31:29;;;;;;;11.65;0.93;;;;;;;;;;5021182;28;20780;-39
2024/01/27 07:33:57;;;;;;;10.48;1.70;;;;;;;;;;5018888;28;20048;-39
2024/01/27 07:36:30;;;;;;;11.13;1.00;;;;;;;;;;5035288;28;20414;-39
2024/01/27 07:38:59;;;;;;;13.05;1.65;;;;;;;;;;5017060;28;20524;-39
2024/01/27 07:41:27;;;;;;;10.30;1.83;;;;;;;;;;5037934;28;20036;-39
2024/01/27 07:43:58;;;;;;;15.13;1.83;;;;;;;;;;5030110;28;20048;-41
2024/01/27 07:46:26;;;;;;;12.20;1.48;;;;;;;;;;5012291;28;20236;-39
2024/01/27 07:48:54;;;;;;;11.43;1.58;;;;;;;;;;5017714;28;20506;-39
2024/01/27 07:51:22;;;;;;;12.20;1.48;;;;;;;;;;5004922;28;20043;-39
2024/01/27 07:53:51;;;;;;;9.17;1.23;;;;;;;;;;5015369;28;20056;-39
2024/01/27 07:56:19;;;;;;;12.80;2.10;;;;;;;;;;5020332;28;20041;-39
2024/01/27 07:58:47;;;;;;;11.85;1.58;;;;;;;;;;5037952;28;20044;-39
2024/01/27 08:01:15;;;;;;;9.63;0.95;;;;;;;;;;5017833;28;20044;-39
2024/01/27 08:03:43;;;;;;;7.57;1.30;;;;;;;;;;5023875;28;20028;-39
2024/01/27 08:06:16;;;;;;;10.07;1.10;;;;;;;;;;5016400;28;20036;-39
2024/01/27 08:08:45;;;;;;;9.35;1.60;;;;;;;;;;5022712;28;20570;-39
2024/01/27 08:11:14;;;;;;;8.50;1.13;;;;;;;;;;5021696;28;20515;-39
2024/01/27 08:13:44;;;;;;;12.32;1.45;;;;;;;;;;5028987;28;20131;-41
2024/01/27 08:16:12;;;;;;;9.85;1.02;;;;;;;;;;5014870;28;20418;-39
2024/01/27 08:18:42;;;;;;;12.57;1.20;;;;;;;;;;5016718;28;20469;-39
2024/01/27 08:21:10;;;;;;;16.15;2.17;;;;;;;;;;5045259;28;20032;-39
2024/01/27 08:23:38;;;;;;;8.60;1.17;;;;;;;;;;5011886;28;20048;-39
2024/01/27 08:26:07;;;;;;;8.23;1.20;;;;;;;;;;5025680;28;20097;-40
2024/01/27 08:28:37;;;;;;;16.80;1.88;;;;;;;;;;4858975;28;21278;-40
2024/01/27 08:31:05;;;;;;;7.33;1.00;;;;;;;;;;5017251;28;20048;-39
2024/01/27 08:33:32;;;;;;;14.52;1.27;;;;;;;;;;5018971;28;20044;-39
2024/01/27 08:36:01;;;;;;;9.98;1.55;;;;;;;;;;5017621;28;20230;-40
2024/01/27 08:38:29;;;;;;;10.85;1.17;;;;;;;;;;5036975;28;20051;-39
2024/01/27 08:40:56;;;;;;;11.70;1.10;;;;;;;;;;5018183;28;20044;-39
2024/01/27 08:43:24;;;;;;;8.73;1.00;;;;;;;;;;5027112;28;20123;-39
2024/01/27 08:45:54;;;;;;;10.27;1.08;;;;;;;;;;5023419;28;20043;-39
2024/01/27 08:48:22;;;;;;;11.57;0.70;;;;;;;;;;5026366;28;20036;-39
2024/01/27 08:50:50;;;;;;;16.33;1.65;;;;;;;;;;5024128;28;20053;-39
2024/01/27 08:53:18;;;;;;;13.80;1.80;;;;;;;;;;5025241;28;20114;-40
2024/01/27 08:55:46;;;;;;;8.13;1.77;;;;;;;;;;5036492;28;20608;-39
2024/01/27 08:58:14;;;;;;;11.40;1.42;;;;;;;;;;5020189;28;20044;-39
2024/01/27 09:00:42;;;;;;;11.55;1.13;;;;;;;;;;5024619;28;20123;-39
2024/01/27 09:03:12;;;;;;;10.88;1.60;;;;;;;;;;5025767;28;20044;-39
2024/01/27 09:05:45;;;;;;;15.27;1.80;;;;;;;;;;5043711;28;20449;-41
2024/01/27 09:08:13;;;;;;;16.80;2.30;;;;;;;;;;5035641;28;20041;-39
2024/01/27 09:10:41;;;;;;;17.83;1.48;;;;;;;;;;5021553;28;20050;-39
2024/01/27 09:13:11;;;;;;;11.68;1.55;;;;;;;;;;5034566;28;20147;-41
2024/01/27 09:15:38;;;;;;;9.23;2.05;;;;;;;;;;5031497;28;20053;-39
2024/01/27 09:18:06;;;;;;;14.25;1.58;;;;;;;;;;5025201;28;20494;-39
2024/01/27 09:20:36;;;;;;;11.17;1.57;;;;;;;;;;5028999;28;20110;-39
2024/01/27 09:23:04;;;;;;;14.10;1.60;;;;;;;;;;5026605;28;20052;-40
2024/01/27 09:25:32;;;;;;;12.57;1.85;;;;;;;;;;5030129;28;20040;-39
2024/01/27 09:28:00;;;;;;;10.48;1.45;;;;;;;;;;4859594;28;20898;-40
2024/01/27 09:30:28;;;;;;;10.55;1.23;;;;;;;;;;5033298;28;20045;-39
2024/01/27 09:32:59;;;;;;;15.23;1.77;;;;;;;;;;5047338;28;20891;-39
2024/01/27 09:35:27;;;;;;;9.63;1.48;;;;;;;;;;5031211;28;20072;-39
2024/01/27 09:37:56;;;;;;;12.25;1.75;;;;;;;;;;5038610;28;20040;-39
2024/01/27 09:40:24;;;;;;;13.73;1.25;;;;;;;;;;5025881;28;20047;-39
2024/01/27 09:42:54;;;;;;;10.10;1.30;;;;;;;;;;5028356;28;20044;-40
2024/01/27 09:45:23;;;;;;;13.47;1.53;;;;;;;;;;5020673;28;20051;-39
2024/01/27 09:47:52;;;;;;;14.27;1.30;;;;;;;;;;5031711;28;20102;-39
2024/01/27 09:50:20;;;;;;;13.45;1.67;;;;;;;;;;5010972;28;20418;-39
2024/01/27 09:52:49;;;;;;;9.35;1.48;;;;;;;;;;5027890;28;20040;-39
2024/01/27 09:55:18;;;;;;;10.50;1.27;;;;;;;;;;4665786;28;10000332;-39
2024/01/27 09:57:47;;;;;;;12.07;1.30;;;;;;;;;;5018629;28;20113;-39
2024/01/27 10:00:16;;;;;;;11.57;1.20;;;;;;;;;;5014618;28;20490;-39
2024/01/27 10:02:46;;;;;;;8.03;1.40;;;;;;;;;;5027160;28;20102;-40
2024/01/27 10:05:14;;;;;;;7.25;1.23;;;;;;;;;;5015840;28;20037;-39
2024/01/27 10:07:43;;;;;;;10.05;1.70;;;;;;;;;;5018706;28;20106;-39
2024/01/27 10:10:11;;;;;;;12.45;1.20;;;;;;;;;;5017804;28;20792;-39
2024/01/27 10:12:41;;;;;;;12.30;1.55;;;;;;;;;;5059628;28;20040;-39
2024/01/27 10:15:19;;;;;;;16.03;1.20;;;;;;;;;;5023331;28;20045;-39
2024/01/27 10:17:47;;;;;;;16.50;1.30;;;;;;;;;;5012202;28;20052;-39
2024/01/27 10:20:18;;;;;;;14.60;1.13;;;;;;;;;;5021232;28;20045;-40
2024/01/27 10:22:46;;;;;;;10.73;1.20;;;;;;;;;;5026609;28;20040;-41
2024/01/27 10:25:14;;;;;;;12.30;1.38;;;;;;;;;;5018393;28;20131;-39
2024/01/27 10:27:47;;;;;;;13.33;1.60;;;;;;;;;;4946563;28;20370;-39
2024/01/27 10:30:18;;;;;;;9.10;1.27;;;;;;;;;;5018369;28;20525;-39
2024/01/27 10:32:55;;;;;;;16.08;1.83;;;;;;;;;;5019728;28;20055;-39
2024/01/27 10:35:24;;;;;;;12.93;1.27;;;;;;;;;;5029179;28;20129;-39
2024/01/27 10:37:52;;;;;;;15.70;1.85;;;;;;;;;;5029205;28;20041;-39
2024/01/27 10:40:26;;;;;;;13.10;1.73;;;;;;;;;;5026481;28;20048;-40
2024/01/27 10:43:01;;;;;;;18.73;2.33;;;;;;;;;;5013829;28;20033;-39
2024/01/27 10:45:30;;;;;;;10.27;1.40;;;;;;;;;;5036522;28;20070;-39
2024/01/27 10:48:00;;;;;;;12.40;1.53;;;;;;;;;;4316270;28;10000157;-41
2024/01/27 10:50:30;;;;;;;12.13;1.50;;;;;;;;;;5018253;28;20131;-42
2024/01/27 10:52:58;;;;;;;7.75;1.35;;;;;;;;;;5031533;28;20704;-43
2024/01/27 10:55:29;;;;;;;10.65;2.28;;;;;;;;;;5028717;28;20055;-44
2024/01/27 10:58:01;;;;;;;15.50;1.80;;;;;;;;;;5023040;28;20728;-42
2024/01/27 11:00:30;;;;;;;13.13;1.35;;;;;;;;;;5024752;28;20052;-42
2024/01/27 11:02:59;;;;;;;11.35;1.50;;;;;;;;;;5020553;28;20491;-42
2024/01/27 11:05:28;;;;;;;14.82;2.15;;;;;;;;;;5047515;28;20399;-41
2024/01/27 11:07:59;;;;;;;11.05;2.10;;;;;;;;;;5033699;28;20417;-41
2024/01/27 11:10:30;;;;;;;12.77;2.00;;;;;;;;;;5015200;28;20045;-41
2024/01/27 11:13:00;;;;;;;11.68;1.42;;;;;;;;;;5036183;28;20071;-41
2024/01/27 11:15:27;;;;;;;12.52;1.40;;;;;;;;;;5010443;28;21150;-41
2024/01/27 11:17:58;;;;;;;15.43;1.67;;;;;;;;;;5021592;28;21949;-44
2024/01/27 11:20:26;;;;;;;11.85;1.65;;;;;;;;;;5018290;28;20045;-41
2024/01/27 11:22:57;;;;;;;13.67;2.47;;;;;;;;;;5029669;28;20067;-41
2024/01/27 11:25:26;;;;;;;15.77;1.38;;;;;;;;;;5016245;28;20041;-43
2024/01/27 11:27:57;;;;;;;8.55;1.35;;;;;;;;;;4866773;28;20047;-42
2024/01/27 11:30:28;;;;;;;11.10;1.40;;;;;;;;;;5028468;28;20574;-42
2024/01/27 11:32:57;;;;;;;13.77;2.13;;;;;;;;;;5023327;28;20146;-40
2024/01/27 11:35:25;;;;;;;14.23;2.00;;;;;;;;;;5020904;28;20486;-42
2024/01/27 11:37:53;;;;;;;13.95;1.60;;;;;;;;;;5035670;28;20052;-42
2024/01/27 11:40:21;;;;;;;9.23;1.60;;;;;;;;;;5020097;28;20924;-41
2024/01/27 11:42:54;;;;;;;13.02;1.85;;;;;;;;;;5032922;28;20044;-41
2024/01/27 11:45:22;;;;;;;9.38;1.20;;;;;;;;;;5019165;28;20094;-42
2024/01/27 11:47:51;;;;;;;14.50;1.70;;;;;;;;;;5028801;28;20063;-42
2024/01/27 11:50:20;;;;;;;12.50;2.40;;;;;;;;;;5037298;28;20045;-44
2024/01/27 11:52:48;;;;;;;18.48;1.83;;;;;;;;;;5025055;28;20043;-41
2024/01/27 11:55:18;;;;;;;15.88;2.00;;;;;;;;;;5032755;28;20083;-43
2024/01/27 11:57:46;;;;;;;13.00;1.42;;;;;;;;;;5016876;28;20760;-42
2024/01/27 12:00:14;;;;;;;15.63;1.90;;;;;;;;;;5061705;28;20048;-43
2024/01/27 12:02:42;;;;;;;13.20;1.75;;;;;;;;;;5013672;28;20074;-44
2024/01/27 12:05:12;;;;;;;11.40;1.60;;;;;;;;;;5042367;28;20135;-43
2024/01/27 12:07:40;;;;;;;10.45;0.95;;;;;;;;;;5014378;28;20558;-41
2024/01/27 12:10:08;;;;;;;11.43;1.65;;;;;;;;;;5041036;28;20287;-41
2024/01/27 12:12:36;;;;;;;13.43;1.70;;;;;;;;;;5002895;28;21522;-42
2024/01/27 12:15:04;;;;;;;15.52;1.90;;;;;;;;;;5025498;28;20045;-42
2024/01/27 12:17:34;;;;;;;12.38;3.25;;;;;;;;;;5003648;28;20041;-43
2024/01/27 12:20:05;;;;;;;13.30;1.63;;;;;;;;;;5040996;28;20506;-41
2024/01/27 12:22:37;;;;;;;10.57;1.58;;;;;;;;;;5016596;28;20055;-40
2024/01/27 12:25:09;;;;;;;11.10;2.73;;;;;;;;;;5063466;28;20513;-41
2024/01/27 12:27:40;;;;;;;16.58;2.00;;;;;;;;;;4929722;28;20036;-41
2024/01/27 12:30:08;;;;;;;10.98;1.27;;;;;;;;;;4980717;28;20047;-41
2024/01/27 12:32:38;;;;;;;11.93;1.60;;;;;;;;;;5025148;28;20070;-42
2024/01/27 12:35:08;;;;;;;12.90;2.10;;;;;;;;;;4639504;28;9999733;-42
2024/01/27 12:37:37;;;;;;;12.95;1.65;;;;;;;;;;5014398;28;20042;-42
2024/01/27 12:40:18;;;;;;;13.98;2.00;;;;;;;;;;5026621;28;20044;-42
2024/01/27 12:42:51;;;;;;;14.15;1.50;;;;;;;;;;5016102;28;20056;-44
2024/01/27 12:45:18;;;;;;;12.23;2.22;;;;;;;;;;5012858;28;20068;-41
2024/01/27 12:47:46;;;;;;;20.67;2.10;;;;;;;;;;5024169;28;20032;-41
2024/01/27 12:50:16;;;;;;;13.75;1.58;;;;;;;;;;5037514;28;20402;-41
2024/01/27 12:52:45;;;;;;;11.68;1.55;;;;;;;;;;5017896;28;20048;-43
2024/01/27 12:55:13;;;;;;;14.18;1.90;;;;;;;;;;5020979;28;20041;-41
2024/01/27 12:57:41;;;;;;;16.55;2.42;;;;;;;;;;5018277;28;20051;-41
2024/01/27 13:00:11;;;;;;;9.57;1.37;;;;;;;;;;5024187;28;20044;-43
2024/01/27 13:02:40;;;;;;;10.05;1.98;;;;;;;;;;5010157;28;20143;-40
2024/01/27 13:05:09;;;;;;;12.85;2.15;;;;;;;;;;5032158;28;20486;-41
2024/01/27 13:07:37;;;;;;;13.85;1.35;;;;;;;;;;5004388;28;20749;-41
2024/01/27 13:10:07;;;;;;;12.07;1.92;;;;;;;;;;5031686;28;20422;-41
2024/01/27 13:12:35;;;;;;;12.17;1.60;;;;;;;;;;5002544;28;21014;-41
2024/01/27 13:15:03;;;;;;;16.65;1.55;;;;;;;;;;5032128;28;20044;-42
2024/01/27 13:17:32;;;;;;;15.38;1.70;;;;;;;;;;5008773;28;20547;-42
2024/01/27 13:20:00;;;;;;;11.63;1.30;;;;;;;;;;5026910;28;20081;-43
2024/01/27 13:22:28;;;;;;;11.25;1.63;;;;;;;;;;5008059;28;20434;-41
2024/01/27 13:24:57;;;;;;;13.17;1.63;;;;;;;;;;5023124;28;20279;-40
2024/01/27 13:27:26;;;;;;;13.95;1.42;;;;;;;;;;4935567;28;20045;-41
2024/01/27 13:30:23;;;;;;;11.25;1.38;;;;;;;;;;5008917;28;20600;-41
2024/01/27 13:32:51;;;;;;;15.88;1.48;;;;;;;;;;5012641;28;20072;-41
2024/01/27 13:35:21;;;;;;;12.15;2.13;;;;;;;;;;5017879;28;20063;-41
2024/01/27 13:37:48;;;;;;;14.90;2.07;;;;;;;;;;5029961;28;20059;-41
2024/01/27 13:40:17;;;;;;;9.57;1.25;;;;;;;;;;5022706;28;20072;-40
2024/01/27 13:42:46;;;;;;;11.27;1.50;;;;;;;;;;5035362;28;20051;-41
2024/01/27 13:45:14;;;;;;;12.70;1.25;;;;;;;;;;5043405;28;20055;-41
2024/01/27 13:47:43;;;;;;;12.30;1.45;;;;;;;;;;5047954;28;20075;-41
2024/01/27 13:50:12;;;;;;;19.77;1.80;;;;;;;;;;5018238;28;20486;-41
2024/01/27 13:52:40;;;;;;;14.02;1.10;;;;;;;;;;5006394;28;20033;-41
2024/01/27 13:55:09;;;;;;;15.48;2.20;;;;;;;;;;5024313;28;20040;-41
2024/01/27 13:57:38;;;;;;;11.10;1.35;;;;;;;;;;5019294;28;20556;-41
2024/01/27 14:00:09;;;;;;;12.20;1.40;;;;;;;;;;5039576;28;20045;-42
2024/01/27 14:02:37;;;;;;;9.03;0.87;;;;;;;;;;5015273;28;20099;-41
2024/01/27 14:05:06;;;;;;;11.75;1.20;;;;;;;;;;5031131;28;20044;-40
2024/01/27 14:07:34;;;;;;;7.18;0.70;;;;;;;;;;5023752;28;20044;-41
2024/01/27 14:10:02;;;;;;;9.20;0.80;;;;;;;;;;5036895;28;20355;-41
2024/01/27 14:12:31;;;;;;;17.13;1.85;;;;;;;;;;5012360;28;20044;-40
2024/01/27 14:15:03;;;;;;;19.23;1.70;;;;;;;;;;5037564;28;20064;-41
2024/01/27 14:17:32;;;;;;;9.65;1.02;;;;;;;;;;5021196;28;20052;-43
2024/01/27 14:20:00;;;;;;;12.50;1.00;;;;;;;;;;5023310;28;20040;-42
2024/01/27 14:22:28;;;;;;;9.02;1.13;;;;;;;;;;5026696;28;20048;-42
2024/01/27 14:24:56;;;;;;;11.60;0.73;;;;;;;;;;5025129;28;20055;-40
2024/01/27 14:27:26;;;;;;;10.27;1.27;;;;;;;;;;4940135;28;20289;-41
2024/01/27 14:29:54;;;;;;;11.05;1.13;;;;;;;;;;4954299;28;20114;-42
2024/01/27 14:32:22;;;;;;;8.93;1.15;;;;;;;;;;5002069;28;20130;-41
2024/01/27 14:34:51;;;;;;;6.40;0.85;;;;;;;;;;5020839;28;20687;-43
2024/01/27 14:37:19;;;;;;;10.27;1.07;;;;;;;;;;4683155;28;10000398;-42
2024/01/27 14:39:48;;;;;;;16.38;0.80;;;;;;;;;;5010388;28;20506;-42
2024/01/27 14:42:17;;;;;;;11.70;1.67;;;;;;;;;;4993198;28;21114;-41